Time;durP1;ratioP1;P1;durP2;ratioP2;P2;SDS_P1;SDS_P2;PMS_P1;PMS_P2;Temp;Humidity;BMP_temperature;BMP_pressure;BME280_temperature;BME280_humidity;BME280_pressure;Samples;Min_cycle;Max_cycle;Signal;HPM_P1;HPM_P2
2023/01/24 00:02:22;;;;;;;4.50;4.10;;;15.50;54.50;16.30;102757.00;;;;5031013;28;20171;-48
2023/01/24 00:04:48;;;;;;;4.60;4.30;;;15.50;54.50;16.30;102780.00;;;;5031757;28;20219;-48
2023/01/24 00:07:13;;;;;;;4.47;4.17;;;15.40;54.40;16.30;102772.00;;;;5031368;28;20195;-48
2023/01/24 00:09:39;;;;;;;4.63;4.23;;;15.40;54.50;16.30;102769.00;;;;5031384;28;20194;-47
2023/01/24 00:12:05;;;;;;;4.60;4.30;;;15.40;54.40;16.30;102768.00;;;;5031293;28;20174;-48
2023/01/24 00:14:31;;;;;;;4.20;3.90;;;15.40;54.50;16.30;102757.00;;;;5035709;28;20207;-48
2023/01/24 00:16:57;;;;;;;4.63;4.23;;;15.40;54.40;16.20;102765.00;;;;5038759;28;20175;-48
2023/01/24 00:19:22;;;;;;;4.60;4.20;;;15.40;54.40;16.20;102754.00;;;;5044377;28;20187;-49
2023/01/24 00:21:48;;;;;;;4.33;4.03;;;15.30;54.40;16.20;102765.00;;;;5039739;28;20235;-49
2023/01/24 00:24:14;;;;;;;4.33;3.93;;;15.30;54.40;16.20;102772.00;;;;5037244;28;20175;-48
2023/01/24 00:26:40;;;;;;;4.47;4.10;;;15.30;54.40;16.20;102767.00;;;;5032813;28;20222;-47
2023/01/24 00:29:06;;;;;;;4.50;4.20;;;15.30;54.40;16.20;102771.00;;;;5032193;28;20324;-46
2023/01/24 00:31:32;;;;;;;4.53;4.23;;;15.30;54.40;16.20;102779.00;;;;5031218;28;20202;-47
2023/01/24 00:33:58;;;;;;;4.43;4.10;;;15.30;54.40;16.20;102775.00;;;;5031186;28;20187;-48
2023/01/24 00:36:23;;;;;;;4.50;4.10;;;15.20;54.30;16.10;102771.00;;;;5031138;28;20797;-48
2023/01/24 00:38:49;;;;;;;4.10;3.80;;;15.20;54.30;16.10;102781.00;;;;5031059;28;20194;-47
2023/01/24 00:41:15;;;;;;;4.40;4.10;;;15.20;54.40;16.10;102795.00;;;;5030396;28;20729;-47
2023/01/24 00:43:41;;;;;;;4.23;3.93;;;15.20;54.30;16.10;102786.00;;;;5031166;28;20182;-47
2023/01/24 00:46:07;;;;;;;4.17;3.87;;;15.20;54.30;16.10;102783.00;;;;5030961;28;20175;-48
2023/01/24 00:48:33;;;;;;;4.10;3.80;;;15.10;54.20;16.10;102774.00;;;;5029290;28;20205;-47
2023/01/24 00:50:58;;;;;;;3.93;3.63;;;15.20;54.40;16.00;102780.00;;;;5031115;28;20183;-48
2023/01/24 00:53:25;;;;;;;4.00;3.70;;;15.10;54.30;16.00;102782.00;;;;5030319;28;20206;-47
2023/01/24 00:55:51;;;;;;;4.10;3.80;;;15.10;54.30;16.00;102790.00;;;;5029976;28;20186;-48
2023/01/24 00:58:17;;;;;;;4.00;3.70;;;15.10;54.30;16.00;102786.00;;;;5029666;28;20232;-48
2023/01/24 01:00:43;;;;;;;4.00;3.70;;;15.10;54.30;16.00;102774.00;;;;5030921;28;20175;-47
2023/01/24 01:03:17;;;;;;;4.20;3.90;;;15.10;54.30;16.00;102782.00;;;;5030312;28;20175;-47
2023/01/24 01:05:43;;;;;;;4.00;3.70;;;15.10;54.30;16.00;102772.00;;;;5030801;28;20163;-48
2023/01/24 01:08:09;;;;;;;3.90;3.60;;;15.10;54.30;15.90;102777.00;;;;5030111;28;20194;-48
2023/01/24 01:10:35;;;;;;;4.23;3.93;;;15.00;54.20;15.90;102766.00;;;;5030381;28;20178;-48
2023/01/24 01:13:00;;;;;;;3.73;3.43;;;15.00;54.20;15.90;102770.00;;;;5029823;28;20645;-47
2023/01/24 01:15:26;;;;;;;4.20;3.90;;;15.10;54.30;15.90;102778.00;;;;5030204;28;20290;-48
2023/01/24 01:17:52;;;;;;;4.40;4.10;;;15.00;54.20;15.90;102786.00;;;;5030221;28;20185;-48
2023/01/24 01:20:18;;;;;;;4.10;3.80;;;15.00;54.20;15.90;102781.00;;;;5028840;28;20199;-48
2023/01/24 01:22:43;;;;;;;4.07;3.77;;;15.00;54.20;15.90;102775.00;;;;5029576;28;20187;-48
2023/01/24 01:25:09;;;;;;;4.00;3.70;;;15.00;54.20;15.90;102778.00;;;;5029914;28;20552;-47
2023/01/24 01:27:35;;;;;;;4.10;3.80;;;15.00;54.20;15.80;102780.00;;;;5029839;28;20179;-47
2023/01/24 01:30:00;;;;;;;3.80;3.50;;;14.90;54.20;15.80;102781.00;;;;5029411;28;20199;-47
2023/01/24 01:32:26;;;;;;;3.90;3.60;;;14.90;54.20;15.80;102777.00;;;;5030038;28;20243;-47
2023/01/24 01:34:52;;;;;;;4.20;3.90;;;14.90;54.20;15.80;102780.00;;;;5033537;28;20206;-49
2023/01/24 01:37:17;;;;;;;4.13;3.83;;;14.90;54.20;15.80;102779.00;;;;5029460;28;20648;-47
2023/01/24 01:39:43;;;;;;;4.00;3.70;;;14.90;54.20;15.80;102780.00;;;;5029657;28;20199;-47
2023/01/24 01:42:09;;;;;;;3.90;3.60;;;14.80;54.20;15.80;102774.00;;;;5029692;28;20183;-49
2023/01/24 01:44:47;;;;;;;4.00;3.70;;;14.90;54.20;15.70;102776.00;;;;5029849;28;20171;-47
2023/01/24 01:47:31;;;;;;;3.90;3.60;;;14.90;54.20;15.70;102793.00;;;;5031803;28;20163;-48
2023/01/24 01:50:18;;;;;;;3.93;3.63;;;14.80;54.20;15.70;102797.00;;;;5029804;28;20213;-47
2023/01/24 01:52:44;;;;;;;3.90;3.60;;;14.80;54.20;15.70;102797.00;;;;5029176;28;20216;-46
2023/01/24 01:55:18;;;;;;;3.90;3.60;;;14.80;54.20;15.70;102796.00;;;;5029675;28;20286;-49
2023/01/24 01:57:44;;;;;;;3.70;3.40;;;14.80;54.20;15.70;102799.00;;;;5029759;28;20202;-47
2023/01/24 02:00:21;;;;;;;3.70;3.40;;;14.80;54.20;15.70;102723.00;;;;5028250;28;20691;-48
2023/01/24 02:02:52;;;;;;;4.00;3.70;;;14.80;54.20;15.70;102789.00;;;;5028809;28;20171;-46
2023/01/24 02:05:20;;;;;;;3.90;3.60;;;14.70;54.20;15.60;102797.00;;;;5028188;28;20658;-47
2023/01/24 02:07:53;;;;;;;3.53;3.33;;;14.80;54.20;15.60;102794.00;;;;5028218;28;20201;-47
2023/01/24 02:10:21;;;;;;;3.90;3.60;;;14.70;54.20;15.60;102806.00;;;;5028219;28;20206;-48
2023/01/24 02:12:47;;;;;;;3.80;3.50;;;14.70;54.20;15.60;102802.00;;;;5027912;28;20536;-46
2023/01/24 02:18:04;;;;;;;3.90;3.60;;;14.70;54.20;15.60;102803.00;;;;5029185;28;20159;-46
2023/01/24 02:20:43;;;;;;;3.77;3.47;;;14.70;54.20;15.60;102787.00;;;;5029086;28;20268;-47
2023/01/24 02:23:30;;;;;;;3.90;3.60;;;14.70;54.20;15.50;102793.00;;;;5027696;28;20170;-46
2023/01/24 02:26:06;;;;;;;4.00;3.70;;;14.70;54.20;15.50;102785.00;;;;5027731;28;20163;-47
2023/01/24 02:28:32;;;;;;;3.70;3.47;;;14.70;54.30;15.50;102783.00;;;;5027578;28;20609;-48
2023/01/24 02:30:59;;;;;;;3.90;3.60;;;14.60;54.20;15.50;102784.00;;;;5027336;28;20213;-47
2023/01/24 02:33:25;;;;;;;3.90;3.60;;;14.60;54.20;15.50;102797.00;;;;5028335;28;20167;-47
2023/01/24 02:35:51;;;;;;;3.70;3.40;;;14.60;54.20;15.50;102803.00;;;;5028122;28;20843;-46
2023/01/24 02:38:22;;;;;;;3.70;3.40;;;14.60;54.20;15.50;102787.00;;;;5028481;28;20205;-47
2023/01/24 02:40:50;;;;;;;3.70;3.40;;;14.60;54.20;15.50;102778.00;;;;5026939;28;20159;-47
2023/01/24 02:43:16;;;;;;;4.00;3.70;;;14.50;54.10;15.50;102778.00;;;;5027003;28;20171;-47
2023/01/24 02:45:42;;;;;;;3.93;3.63;;;14.50;54.10;15.50;102788.00;;;;5010099;28;20163;-47
2023/01/24 02:48:08;;;;;;;4.03;3.73;;;14.60;54.20;15.40;102782.00;;;;5027976;28;20206;-49
2023/01/24 02:53:29;;;;;;;3.50;3.30;;;14.50;54.10;15.40;102776.00;;;;5026346;28;20190;-47
2023/01/24 02:58:40;;;;;;;3.97;3.67;;;14.50;54.10;15.40;102780.00;;;;5028156;28;20191;-47
2023/01/24 03:01:05;;;;;;;3.80;3.50;;;14.50;54.10;15.30;102772.00;;;;5028385;28;20167;-47
2023/01/24 03:03:31;;;;;;;3.70;3.40;;;14.50;54.10;15.40;102783.00;;;;5033238;28;20194;-47
2023/01/24 03:05:57;;;;;;;3.90;3.60;;;14.40;54.00;15.30;102786.00;;;;5034231;28;20211;-49
2023/01/24 03:08:25;;;;;;;4.07;3.77;;;14.40;54.10;15.30;102782.00;;;;5028367;28;20195;-49
2023/01/24 03:10:51;;;;;;;3.70;3.40;;;14.40;54.10;15.30;102775.00;;;;5028829;28;20175;-47
2023/01/24 03:35:10;;;;;;;3.80;3.50;;;14.30;54.00;15.20;102764.00;;;;5008083;28;20292;-48
2023/01/24 03:40:20;;;;;;;3.80;3.50;;;14.30;54.00;15.20;102769.00;;;;5008190;28;20194;-47
2023/01/24 03:42:49;;;;;;;4.07;3.77;;;14.30;54.10;15.20;102755.00;;;;5007696;28;20168;-47
2023/01/24 03:45:21;;;;;;;3.90;3.60;;;14.30;54.00;15.10;102771.00;;;;5008210;28;20176;-47
2023/01/24 03:47:55;;;;;;;3.90;3.60;;;14.30;54.00;15.10;102780.00;;;;4990672;28;20188;-47
2023/01/24 03:53:09;;;;;;;3.67;3.37;;;14.30;54.10;15.10;102777.00;;;;5008198;28;20171;-48
2023/01/24 03:55:35;;;;;;;3.90;3.60;;;14.20;54.00;15.10;102776.00;;;;5008217;28;20176;-49
2023/01/24 03:58:01;;;;;;;3.50;3.30;;;14.20;53.90;15.10;102777.00;;;;5008497;28;20171;-48
2023/01/24 04:00:26;;;;;;;3.70;3.40;;;14.20;53.90;15.10;102779.00;;;;5008665;28;20269;-48
2023/01/24 04:02:53;;;;;;;3.80;3.50;;;14.20;53.90;15.10;102783.00;;;;5011447;28;20262;-49
2023/01/24 04:05:20;;;;;;;3.63;3.40;;;14.20;54.00;15.10;102782.00;;;;5011126;28;20171;-48
2023/01/24 04:07:46;;;;;;;3.67;3.37;;;14.20;54.00;15.10;102776.00;;;;5009919;28;20311;-48
2023/01/24 04:10:13;;;;;;;3.77;3.47;;;14.20;54.00;15.10;102772.00;;;;5011148;28;20190;-48
2023/01/24 04:12:40;;;;;;;3.90;3.60;;;14.20;54.00;15.10;102769.00;;;;5010920;28;20172;-48
2023/01/24 04:15:06;;;;;;;3.70;3.40;;;14.10;53.90;15.10;102765.00;;;;5011096;28;21056;-48
2023/01/24 04:17:32;;;;;;;4.00;3.70;;;14.20;54.00;15.00;102769.00;;;;5011309;28;20172;-46
2023/01/24 04:19:58;;;;;;;3.93;3.63;;;14.10;53.90;15.00;102771.00;;;;5010934;28;20775;-46
2023/01/24 04:22:24;;;;;;;3.83;3.53;;;14.10;53.90;15.00;102764.00;;;;5010802;28;20167;-47
2023/01/24 04:24:50;;;;;;;4.10;3.77;;;14.10;53.90;15.00;102767.00;;;;5011238;28;20203;-47
2023/01/24 04:27:15;;;;;;;3.83;3.53;;;14.10;53.90;15.00;102768.00;;;;5019546;28;20183;-47
2023/01/24 04:29:41;;;;;;;3.77;3.47;;;14.10;54.00;15.00;102776.00;;;;5019610;28;20699;-47
2023/01/24 04:32:07;;;;;;;4.33;3.70;;;14.00;53.90;15.00;102770.00;;;;5017899;28;20187;-47
2023/01/24 04:34:33;;;;;;;4.43;3.50;;;14.10;54.40;15.00;102777.00;;;;5011351;28;20199;-49
2023/01/24 04:36:58;;;;;;;4.10;3.50;;;14.00;54.30;15.00;102765.00;;;;5011233;28;20171;-47
2023/01/24 04:39:24;;;;;;;3.70;3.30;;;14.00;54.40;15.00;102771.00;;;;5011017;28;20188;-47
2023/01/24 04:41:50;;;;;;;4.80;3.60;;;14.00;54.70;15.00;102780.00;;;;5010963;28;20222;-47
2023/01/24 04:44:16;;;;;;;3.80;3.50;;;14.00;54.30;14.90;102770.00;;;;5010432;28;20180;-46
2023/01/24 04:46:41;;;;;;;5.10;3.03;;;14.00;54.40;14.90;102777.00;;;;5011154;28;20251;-47
2023/01/24 04:49:07;;;;;;;4.73;3.40;;;14.00;54.80;15.00;102770.00;;;;5011256;28;20203;-47
2023/01/24 04:51:33;;;;;;;3.97;3.13;;;14.10;55.00;15.00;102770.00;;;;5011358;28;20657;-46
2023/01/24 04:53:58;;;;;;;3.40;3.10;;;14.10;55.00;15.00;102766.00;;;;5011134;28;20215;-47
2023/01/24 04:56:24;;;;;;;5.70;3.00;;;14.20;55.00;15.00;102765.00;;;;5011643;28;20506;-47
2023/01/24 04:58:50;;;;;;;3.97;2.97;;;14.20;55.00;15.10;102769.00;;;;5010772;28;20233;-47
2023/01/24 05:01:16;;;;;;;3.40;3.10;;;14.30;55.70;15.10;102773.00;;;;5016761;28;20202;-47
2023/01/24 05:03:41;;;;;;;3.10;2.90;;;14.40;55.10;15.20;102779.00;;;;5014062;28;20172;-47
2023/01/24 05:06:07;;;;;;;2.90;2.70;;;14.50;55.10;15.30;102782.00;;;;5011236;28;20209;-47
2023/01/24 05:08:33;;;;;;;3.03;2.83;;;14.50;55.00;15.30;102772.00;;;;5010635;28;20187;-47
2023/01/24 05:11:02;;;;;;;3.90;2.70;;;14.60;55.00;15.40;102777.00;;;;5010435;28;20381;-47
2023/01/24 05:13:28;;;;;;;2.77;2.57;;;14.70;55.10;15.50;102772.00;;;;5010135;28;20171;-47
2023/01/24 05:15:54;;;;;;;3.43;2.80;;;14.80;55.00;15.60;102777.00;;;;5010845;28;20222;-47
2023/01/24 05:18:20;;;;;;;3.20;2.90;;;14.90;55.00;15.70;102780.00;;;;5010805;28;20168;-47
2023/01/24 05:20:45;;;;;;;2.77;2.57;;;15.00;55.00;15.80;102772.00;;;;5010561;28;20214;-48
2023/01/24 05:23:11;;;;;;;3.00;2.80;;;15.10;54.90;15.90;102768.00;;;;5010475;28;20229;-47
2023/01/24 05:25:37;;;;;;;2.80;2.60;;;15.20;54.90;16.00;102775.00;;;;5010773;28;20168;-47
2023/01/24 05:28:03;;;;;;;2.87;2.60;;;15.40;55.10;16.10;102778.00;;;;5011073;28;20253;-47
2023/01/24 05:30:29;;;;;;;2.90;2.70;;;15.40;55.10;16.20;102778.00;;;;5010825;28;20204;-46
2023/01/24 05:32:58;;;;;;;3.33;2.70;;;15.50;55.10;16.30;102778.00;;;;5010440;28;20752;-47
2023/01/24 05:35:24;;;;;;;2.80;2.60;;;15.60;55.20;16.30;102773.00;;;;5010274;28;20218;-47
2023/01/24 05:37:49;;;;;;;4.10;2.67;;;15.60;55.20;16.40;102770.00;;;;5010463;28;20171;-52
2023/01/24 05:40:15;;;;;;;3.47;2.70;;;15.70;55.20;16.50;102782.00;;;;5008952;28;20191;-47
2023/01/24 05:42:44;;;;;;;4.10;2.90;;;15.70;55.10;16.50;102781.00;;;;5014496;28;20181;-47
2023/01/24 05:45:12;;;;;;;4.90;2.80;;;15.70;55.00;16.60;102783.00;;;;5026885;28;20195;-47
2023/01/24 05:47:38;;;;;;;8.47;3.10;;;15.80;55.20;16.60;102787.00;;;;5033313;28;20172;-47
2023/01/24 05:50:04;;;;;;;8.17;3.57;;;15.80;55.20;16.60;102781.00;;;;5011600;28;20553;-47
2023/01/24 05:52:29;;;;;;;12.60;3.70;;;15.80;55.90;16.60;102793.00;;;;5009869;28;20193;-47
2023/01/24 05:54:55;;;;;;;9.13;3.50;;;15.80;55.30;16.70;102794.00;;;;5009762;28;20196;-46
2023/01/24 05:57:21;;;;;;;9.37;3.33;;;15.80;55.30;16.70;102793.00;;;;5009682;28;20645;-47
2023/01/24 05:59:46;;;;;;;9.33;3.73;;;15.80;55.40;16.70;102787.00;;;;5009546;28;20227;-47
2023/01/24 06:02:12;;;;;;;13.00;3.23;;;15.90;55.50;16.70;102789.00;;;;5009372;28;20176;-48
2023/01/24 06:04:38;;;;;;;14.17;3.90;;;15.90;55.50;16.70;102796.00;;;;5010362;28;20179;-47
2023/01/24 06:07:04;;;;;;;11.17;3.83;;;15.90;55.60;16.70;102799.00;;;;5009942;28;20703;-47
2023/01/24 06:09:29;;;;;;;9.37;3.80;;;15.80;55.60;16.70;102797.00;;;;5009784;28;20207;-47
2023/01/24 06:11:55;;;;;;;11.93;3.73;;;15.90;55.80;16.70;102802.00;;;;5009061;28;20182;-47
2023/01/24 06:14:21;;;;;;;11.20;3.30;;;15.80;55.90;16.70;102809.00;;;;5008567;28;20211;-47
2023/01/24 06:16:47;;;;;;;12.77;3.50;;;15.80;55.80;16.70;102814.00;;;;5007991;28;20187;-47
2023/01/24 06:19:14;;;;;;;7.47;3.70;;;15.80;55.40;16.70;102811.00;;;;5009428;28;20192;-47
2023/01/24 06:21:45;;;;;;;6.93;3.40;;;15.80;55.40;16.70;102817.00;;;;5008747;28;20183;-47
2023/01/24 06:24:19;;;;;;;6.03;3.63;;;15.80;55.30;16.70;102825.00;;;;5007909;28;20186;-46
2023/01/24 06:26:46;;;;;;;8.23;3.87;;;15.70;54.90;16.60;102820.00;;;;5009091;28;20197;-47
2023/01/24 06:29:12;;;;;;;10.93;3.60;;;15.70;54.90;16.60;102820.00;;;;5008942;28;21024;-48
2023/01/24 06:31:59;;;;;;;5.60;3.90;;;15.70;54.90;16.60;102827.00;;;;5008856;28;20171;-47
2023/01/24 06:34:48;;;;;;;7.40;3.60;;;15.70;54.90;16.60;102843.00;;;;5008345;28;20675;-46
2023/01/24 06:37:37;;;;;;;6.43;3.27;;;15.70;54.90;16.60;102842.00;;;;5009035;28;20156;-47
2023/01/24 06:40:10;;;;;;;4.37;3.30;;;15.70;55.00;16.60;102837.00;;;;5009082;28;20679;-47
2023/01/24 06:42:37;;;;;;;4.30;3.10;;;15.70;54.90;16.50;102838.00;;;;5010962;28;20176;-47
2023/01/24 06:45:03;;;;;;;5.43;3.10;;;15.70;55.00;16.60;102834.00;;;;5015456;28;20183;-47
2023/01/24 06:47:29;;;;;;;4.33;3.30;;;15.70;55.00;16.60;102841.00;;;;5008877;28;20183;-47
2023/01/24 06:49:55;;;;;;;5.13;3.37;;;15.80;55.00;16.60;102844.00;;;;5009226;28;20191;-47
2023/01/24 06:52:21;;;;;;;5.33;3.03;;;15.80;55.00;16.60;102838.00;;;;5008914;28;20229;-47
2023/01/24 06:54:46;;;;;;;5.63;3.40;;;15.80;55.00;16.60;102844.00;;;;5009314;28;20970;-47
2023/01/24 06:57:12;;;;;;;5.63;3.20;;;15.80;55.10;16.60;102848.00;;;;5009126;28;20176;-46
2023/01/24 06:59:38;;;;;;;4.20;3.50;;;15.70;55.00;16.60;102851.00;;;;5008027;28;20187;-48
2023/01/24 07:02:04;;;;;;;4.47;3.00;;;15.80;55.10;16.60;102849.00;;;;5008859;28;20656;-47
2023/01/24 07:04:29;;;;;;;6.23;3.27;;;15.80;55.10;16.60;102858.00;;;;5008751;28;20258;-47
2023/01/24 07:06:55;;;;;;;5.37;3.20;;;15.70;55.10;16.60;102851.00;;;;5009062;28;20167;-47
2023/01/24 07:09:21;;;;;;;4.53;3.10;;;15.70;55.10;16.60;102859.00;;;;5009069;28;20773;-47
2023/01/24 07:11:49;;;;;;;4.97;3.10;;;15.70;55.10;16.60;102858.00;;;;5008464;28;20768;-47
2023/01/24 07:14:15;;;;;;;4.20;2.97;;;15.70;55.70;16.60;102868.00;;;;5008933;28;20259;-46
2023/01/24 07:16:41;;;;;;;4.13;3.07;;;15.70;55.10;16.60;102870.00;;;;5008950;28;20767;-48
2023/01/24 07:19:13;;;;;;;3.37;3.07;;;15.80;55.20;16.60;102866.00;;;;5008775;28;20222;-46
2023/01/24 07:21:39;;;;;;;3.37;2.80;;;15.80;55.30;16.60;102873.00;;;;4992013;28;20191;-47
2023/01/24 07:24:15;;;;;;;3.53;3.10;;;15.70;55.10;16.60;102871.00;;;;5007764;28;20614;-46
2023/01/24 07:26:41;;;;;;;3.27;2.97;;;15.70;55.20;16.60;102877.00;;;;4992268;28;20168;-48
2023/01/24 07:29:07;;;;;;;4.60;3.00;;;15.80;55.30;16.60;102878.00;;;;5007280;28;20195;-47
2023/01/24 07:31:33;;;;;;;3.13;2.83;;;15.70;55.20;16.60;102900.00;;;;5012301;28;20184;-47
2023/01/24 07:33:58;;;;;;;4.03;2.90;;;15.70;55.20;16.60;102895.00;;;;5010797;28;20718;-47
2023/01/24 07:36:24;;;;;;;3.90;3.10;;;15.70;55.20;16.50;102887.00;;;;5011189;28;20176;-46
2023/01/24 07:38:53;;;;;;;4.00;3.00;;;15.80;55.30;16.60;102897.00;;;;5016385;28;20187;-46
2023/01/24 07:41:19;;;;;;;3.23;2.80;;;15.70;55.20;16.50;102886.00;;;;5019421;28;20198;-46
2023/01/24 07:43:45;;;;;;;3.00;2.70;;;15.80;55.30;16.50;102881.00;;;;5015689;28;20716;-46
2023/01/24 07:46:11;;;;;;;3.53;2.90;;;15.80;55.30;16.50;102899.00;;;;5010997;28;20172;-48
2023/01/24 07:48:36;;;;;;;3.50;3.00;;;15.80;55.30;16.60;102900.00;;;;5012080;28;20625;-49
2023/01/24 07:51:03;;;;;;;2.90;2.67;;;15.80;55.30;16.60;102896.00;;;;5012043;28;20190;-46
2023/01/24 07:53:28;;;;;;;3.30;2.70;;;15.80;55.30;16.60;102897.00;;;;5011486;28;20661;-46
2023/01/24 07:55:54;;;;;;;3.60;2.67;;;15.80;55.40;16.60;102901.00;;;;5011559;28;20183;-47
2023/01/24 07:58:20;;;;;;;3.80;3.17;;;15.80;55.40;16.60;102909.00;;;;5012210;28;20183;-47
2023/01/24 08:00:46;;;;;;;3.43;2.93;;;15.80;55.30;16.60;102905.00;;;;5011771;28;20175;-49
2023/01/24 08:03:11;;;;;;;3.93;2.80;;;15.80;55.30;16.60;102907.00;;;;5021209;28;20199;-47
2023/01/24 08:05:37;;;;;;;4.00;3.10;;;15.80;55.40;16.60;102903.00;;;;5012000;28;20206;-48
2023/01/24 08:08:03;;;;;;;3.57;2.67;;;15.80;55.30;16.60;102906.00;;;;5011560;28;20653;-47
2023/01/24 08:10:29;;;;;;;2.80;2.60;;;15.80;55.30;16.60;102902.00;;;;5012046;28;20294;-46
2023/01/24 08:12:55;;;;;;;3.30;3.00;;;15.80;55.30;16.60;102908.00;;;;5011041;28;20195;-48
2023/01/24 08:15:21;;;;;;;3.37;2.60;;;15.80;55.40;16.60;102903.00;;;;5011313;28;20195;-47
2023/01/24 08:17:46;;;;;;;2.80;2.60;;;15.80;55.30;16.60;102901.00;;;;5011753;28;20695;-46
2023/01/24 08:20:12;;;;;;;3.03;2.73;;;15.80;55.30;16.60;102909.00;;;;5011538;28;20253;-46
2023/01/24 08:22:41;;;;;;;2.90;2.60;;;15.80;55.30;16.60;102912.00;;;;5011135;28;20212;-47
2023/01/24 08:25:08;;;;;;;2.80;2.60;;;15.80;55.30;16.60;102916.00;;;;5012560;28;20298;-47
2023/01/24 08:27:34;;;;;;;2.80;2.60;;;15.80;55.40;16.60;102914.00;;;;4994847;28;20214;-49
2023/01/24 08:29:59;;;;;;;3.30;3.00;;;15.80;55.40;16.60;102912.00;;;;5014649;28;20199;-47
2023/01/24 08:32:25;;;;;;;3.40;2.60;;;15.80;55.40;16.60;102921.00;;;;5011687;28;20218;-49
2023/01/24 08:34:51;;;;;;;2.80;2.60;;;15.80;55.40;16.60;102924.00;;;;5011656;28;20208;-47
2023/01/24 08:37:17;;;;;;;2.97;2.53;;;15.80;55.40;16.60;102920.00;;;;5010785;28;20223;-47
2023/01/24 08:39:42;;;;;;;2.70;2.50;;;15.80;55.40;16.60;102930.00;;;;5017054;28;20241;-47
2023/01/24 08:42:09;;;;;;;2.80;2.60;;;15.80;55.40;16.60;102924.00;;;;5020538;28;20602;-47
2023/01/24 08:44:34;;;;;;;3.03;2.60;;;15.80;55.40;16.60;102925.00;;;;5017734;28;20278;-46
2023/01/24 08:47:00;;;;;;;2.80;2.50;;;15.80;55.40;16.60;102936.00;;;;5013250;28;20194;-46
2023/01/24 08:49:26;;;;;;;2.97;2.67;;;15.80;55.40;16.60;102932.00;;;;5011561;28;20188;-46
2023/01/24 08:51:58;;;;;;;2.60;2.40;;;15.80;55.40;16.60;102930.00;;;;5011325;28;20172;-48
2023/01/24 08:54:28;;;;;;;2.60;2.40;;;15.80;55.40;16.60;102934.00;;;;5011927;28;20725;-49
2023/01/24 08:56:54;;;;;;;2.77;2.57;;;15.80;55.40;16.60;102939.00;;;;5028353;28;20179;-48
2023/01/24 08:59:19;;;;;;;2.80;2.60;;;15.80;55.40;16.60;102944.00;;;;5029559;28;20210;-47
2023/01/24 09:01:45;;;;;;;2.63;2.43;;;15.80;55.40;16.40;102943.00;;;;5034453;28;20250;-47
2023/01/24 09:04:11;;;;;;;2.73;2.53;;;15.80;55.40;16.60;102944.00;;;;5032532;28;20170;-47
2023/01/24 09:06:37;;;;;;;2.70;2.50;;;15.80;55.40;16.60;102950.00;;;;5029586;28;20198;-47
2023/01/24 09:09:03;;;;;;;2.90;2.50;;;15.80;55.40;16.60;102950.00;;;;5029877;28;20198;-47
2023/01/24 09:11:30;;;;;;;2.73;2.53;;;15.80;55.40;16.60;102940.00;;;;5030290;28;20241;-47
2023/01/24 09:13:56;;;;;;;2.70;2.50;;;15.80;55.40;16.60;102942.00;;;;5030753;28;20262;-47
2023/01/24 09:16:22;;;;;;;3.30;2.50;;;15.80;55.40;16.60;102940.00;;;;5030495;28;20252;-48
2023/01/24 09:18:49;;;;;;;2.87;2.60;;;15.80;55.40;16.60;102961.00;;;;5030396;28;20219;-47
2023/01/24 09:21:15;;;;;;;2.70;2.50;;;15.80;55.40;16.60;102960.00;;;;5029577;28;20183;-47
2023/01/24 09:23:40;;;;;;;2.63;2.43;;;15.80;55.40;16.60;102960.00;;;;5030234;28;20262;-47
2023/01/24 09:26:06;;;;;;;2.73;2.50;;;15.80;55.40;16.60;102895.00;;;;5030086;28;20178;-47
2023/01/24 09:28:33;;;;;;;4.60;2.53;;;15.80;55.40;16.60;102961.00;;;;5030140;28;20191;-46
2023/01/24 09:30:59;;;;;;;2.70;2.50;;;15.80;55.60;16.60;102973.00;;;;5029675;28;20179;-49
2023/01/24 09:33:25;;;;;;;5.80;2.70;;;15.80;55.50;16.60;102957.00;;;;5029686;28;20167;-47
2023/01/24 09:35:59;;;;;;;3.67;2.60;;;15.80;56.00;16.60;102963.00;;;;5030073;28;20190;-47
2023/01/24 09:38:26;;;;;;;2.60;2.40;;;15.80;55.90;16.60;102961.00;;;;5030249;28;20169;-47
2023/01/24 09:41:15;;;;;;;2.93;2.37;;;15.80;55.90;16.60;102962.00;;;;5029261;28;20193;-46
2023/01/24 09:43:51;;;;;;;3.07;2.77;;;15.80;55.90;16.60;102960.00;;;;5032167;28;20171;-47
2023/01/24 09:46:28;;;;;;;5.10;2.60;;;15.90;55.70;16.60;102961.00;;;;5035015;28;20174;-47
2023/01/24 09:49:11;;;;;;;3.70;2.80;;;15.90;55.50;16.70;102967.00;;;;5029374;28;20198;-47
2023/01/24 09:51:50;;;;;;;3.00;2.80;;;16.00;55.40;16.80;102969.00;;;;5028039;28;20222;-47
2023/01/24 09:54:38;;;;;;;2.83;2.60;;;16.10;55.20;16.80;102977.00;;;;5028667;28;20249;-47
2023/01/24 09:57:26;;;;;;;2.93;2.60;;;16.10;55.00;16.90;102971.00;;;;5001805;28;20187;-47
2023/01/24 09:59:56;;;;;;;4.83;2.83;;;16.20;54.70;16.90;102971.00;;;;5009760;28;20202;-47
2023/01/24 10:02:23;;;;;;;3.20;2.70;;;16.20;54.40;17.00;102977.00;;;;4992500;28;20179;-47
2023/01/24 10:04:49;;;;;;;3.90;2.77;;;16.30;54.30;17.00;102982.00;;;;5008917;28;20211;-46
2023/01/24 10:08:03;;;;;;;4.13;2.83;;;16.30;54.10;17.10;102974.00;;;;5009707;28;20589;-48
2023/01/24 10:11:07;;;;;;;2.90;2.70;;;16.40;54.40;17.10;102972.00;;;;5013636;28;20209;-47
2023/01/24 10:14:00;;;;;;;2.83;2.57;;;16.40;54.80;17.20;102977.00;;;;5033618;28;20186;-47
2023/01/24 10:16:46;;;;;;;2.93;2.60;;;16.50;54.90;17.20;102975.00;;;;5030540;28;20151;-48
2023/01/24 10:19:31;;;;;;;5.70;2.80;;;16.50;54.90;17.20;102978.00;;;;5029379;28;20198;-47
2023/01/24 10:22:18;;;;;;;3.87;2.60;;;16.50;54.90;17.30;102974.00;;;;5028897;28;20191;-48
2023/01/24 10:24:55;;;;;;;3.10;2.50;;;16.50;55.00;17.30;102978.00;;;;5029154;28;20189;-47
2023/01/24 10:27:35;;;;;;;6.33;2.63;;;16.60;55.30;17.30;102976.00;;;;5027851;28;20181;-46
2023/01/24 10:30:35;;;;;;;2.77;2.50;;;16.60;55.60;17.40;102961.00;;;;5027409;28;20314;-48
2023/01/24 10:33:03;;;;;;;4.63;2.40;;;16.60;55.80;17.40;102967.00;;;;5032101;28;20195;-49
2023/01/24 10:35:33;;;;;;;5.27;2.40;;;16.60;55.70;17.40;102968.00;;;;5029032;28;20782;-49
2023/01/24 10:38:00;;;;;;;2.67;2.20;;;16.60;55.80;17.40;102965.00;;;;5028096;28;20268;-47
2023/01/24 10:40:26;;;;;;;4.63;2.47;;;16.60;55.70;17.50;102962.00;;;;5027187;28;20718;-47
2023/01/24 10:42:52;;;;;;;5.90;2.60;;;16.60;55.70;17.50;102966.00;;;;5028770;28;20174;-47
2023/01/24 10:45:40;;;;;;;9.20;2.53;;;16.70;56.00;17.50;102956.00;;;;5028125;28;20511;-47
2023/01/24 10:48:33;;;;;;;4.47;2.50;;;16.70;55.90;17.50;102961.00;;;;5027550;28;20168;-47
2023/01/24 10:51:23;;;;;;;4.50;2.40;;;16.70;55.80;17.50;102956.00;;;;5026906;28;20232;-48
2023/01/24 10:53:49;;;;;;;8.00;2.50;;;16.70;55.70;17.50;102959.00;;;;5028357;28;20879;-47
2023/01/24 10:56:18;;;;;;;4.20;2.50;;;16.70;55.70;17.60;102961.00;;;;5028514;28;20207;-48
2023/01/24 10:59:12;;;;;;;5.37;2.60;;;16.80;55.80;17.60;102968.00;;;;5026990;28;20723;-49
2023/01/24 11:01:48;;;;;;;4.67;2.63;;;16.80;55.80;17.60;102960.00;;;;5026547;28;20599;-49
2023/01/24 11:04:21;;;;;;;4.93;2.60;;;16.80;55.80;17.60;102955.00;;;;5028759;28;20635;-48
2023/01/24 11:06:48;;;;;;;2.83;2.40;;;16.80;55.80;17.60;102956.00;;;;5029060;28;20222;-48
2023/01/24 11:09:19;;;;;;;4.23;2.60;;;16.80;55.80;17.60;102951.00;;;;5028916;28;20676;-49
2023/01/24 11:11:49;;;;;;;7.67;2.63;;;16.80;55.80;17.70;102954.00;;;;5041042;28;20226;-47
2023/01/24 11:14:34;;;;;;;4.40;2.60;;;16.90;56.00;17.70;102950.00;;;;5041571;28;20699;-47
2023/01/24 11:17:01;;;;;;;4.20;2.60;;;16.80;56.10;17.70;102949.00;;;;5031742;28;20181;-49
2023/01/24 11:19:36;;;;;;;3.87;2.73;;;16.90;56.10;17.70;102948.00;;;;5031437;28;20185;-48
2023/01/24 11:22:23;;;;;;;3.97;2.47;;;16.90;56.00;17.70;102948.00;;;;5032681;28;20175;-48
2023/01/24 11:24:49;;;;;;;4.67;2.50;;;16.90;55.90;17.70;102947.00;;;;5032483;28;20178;-51
2023/01/24 11:27:17;;;;;;;3.40;2.40;;;16.90;55.90;17.70;102947.00;;;;5032726;28;20190;-47
2023/01/24 11:29:43;;;;;;;3.57;2.57;;;16.90;55.90;17.70;102944.00;;;;5032367;28;20201;-49
2023/01/24 11:32:31;;;;;;;5.50;2.73;;;16.90;55.90;17.70;102947.00;;;;5032298;28;20232;-48